sensor_id;sensor_type;location;lat;lon;timestamp;pressure;altitude;pressure_sealevel;temperature
61595;BMP280;47397;48.194;11.632;2024-01-15T00:00:17;94605.31;;;-1.09
61595;BMP280;47397;48.194;11.632;2024-01-15T00:01:17;94596.97;;;-0.96
61595;BMP280;47397;48.194;11.632;2024-01-15T00:02:18;94605.28;;;-0.85
61595;BMP280;47397;48.194;11.632;2024-01-15T00:03:18;94605.28;;;-0.88
61595;BMP280;47397;48.194;11.632;2024-01-15T00:04:18;94623.56;;;-0.87
61595;BMP280;47397;48.194;11.632;2024-01-15T00:05:19;94612.75;;;-0.83
61595;BMP280;47397;48.194;11.632;2024-01-15T00:06:19;94617.75;;;-0.79
61595;BMP280;47397;48.194;11.632;2024-01-15T00:07:20;94616.91;;;-0.76
61595;BMP280;47397;48.194;11.632;2024-01-15T00:08:20;94610.22;;;-0.47
61595;BMP280;47397;48.194;11.632;2024-01-15T00:09:20;94612.72;;;-0.51
61595;BMP280;47397;48.194;11.632;2024-01-15T00:10:22;94616.06;;;-0.54
61595;BMP280;47397;48.194;11.632;2024-01-15T00:11:23;94621.88;;;-0.56
61595;BMP280;47397;48.194;11.632;2024-01-15T00:12:23;94608.56;;;-0.52
61595;BMP280;47397;48.194;11.632;2024-01-15T00:13:24;94617.72;;;-0.60
61595;BMP280;47397;48.194;11.632;2024-01-15T00:14:24;94612.72;;;-0.50
61595;BMP280;47397;48.194;11.632;2024-01-15T00:15:24;94607.75;;;-0.57
61595;BMP280;47397;48.194;11.632;2024-01-15T00:16:25;94616.91;;;-0.58
61595;BMP280;47397;48.194;11.632;2024-01-15T00:17:25;94616.91;;;-0.59
61595;BMP280;47397;48.194;11.632;2024-01-15T00:18:25;94621.91;;;-0.63
61595;BMP280;47397;48.194;11.632;2024-01-15T00:19:26;94616.06;;;-0.54
61595;BMP280;47397;48.194;11.632;2024-01-15T00:20:26;94617.72;;;-0.56
61595;BMP280;47397;48.194;11.632;2024-01-15T00:21:26;94621.06;;;-0.61
61595;BMP280;47397;48.194;11.632;2024-01-15T00:22:27;94621.91;;;-0.63
61595;BMP280;47397;48.194;11.632;2024-01-15T00:23:27;94626.88;;;-0.66
61595;BMP280;47397;48.194;11.632;2024-01-15T00:24:27;94624.38;;;-0.63
61595;BMP280;47397;48.194;11.632;2024-01-15T00:25:29;94620.22;;;-0.64
61595;BMP280;47397;48.194;11.632;2024-01-15T00:26:29;94613.59;;;-0.66
61595;BMP280;47397;48.194;11.632;2024-01-15T00:27:30;94626.88;;;-0.55
61595;BMP280;47397;48.194;11.632;2024-01-15T00:28:30;94620.22;;;-0.54
61595;BMP280;47397;48.194;11.632;2024-01-15T00:29:31;94611.06;;;-0.58
61595;BMP280;47397;48.194;11.632;2024-01-15T00:30:31;94616.06;;;-0.57
61595;BMP280;47397;48.194;11.632;2024-01-15T00:31:31;94624.38;;;-0.53
61595;BMP280;47397;48.194;11.632;2024-01-15T00:32:32;94621.88;;;-0.55
61595;BMP280;47397;48.194;11.632;2024-01-15T00:33:32;94620.22;;;-0.57
61595;BMP280;47397;48.194;11.632;2024-01-15T00:34:32;94622.72;;;-0.64
61595;BMP280;47397;48.194;11.632;2024-01-15T00:35:33;94626.88;;;-0.59
61595;BMP280;47397;48.194;11.632;2024-01-15T00:36:33;94631.84;;;-0.50
61595;BMP280;47397;48.194;11.632;2024-01-15T00:37:33;94629.34;;;-0.49
61595;BMP280;47397;48.194;11.632;2024-01-15T00:38:34;94629.34;;;-0.53
61595;BMP280;47397;48.194;11.632;2024-01-15T00:39:34;94636.00;;;-0.54
61595;BMP280;47397;48.194;11.632;2024-01-15T00:40:36;94639.34;;;-0.58
61595;BMP280;47397;48.194;11.632;2024-01-15T00:41:36;94636.84;;;-0.56
61595;BMP280;47397;48.194;11.632;2024-01-15T00:42:37;94636.00;;;-0.54
61595;BMP280;47397;48.194;11.632;2024-01-15T00:43:37;94645.16;;;-0.57
61595;BMP280;47397;48.194;11.632;2024-01-15T00:44:37;94647.66;;;-0.53
61595;BMP280;47397;48.194;11.632;2024-01-15T00:45:38;94645.16;;;-0.53
61595;BMP280;47397;48.194;11.632;2024-01-15T00:46:43;94655.97;;;-0.55
61595;BMP280;47397;48.194;11.632;2024-01-15T00:47:43;94661.81;;;-0.56
61595;BMP280;47397;48.194;11.632;2024-01-15T00:48:44;94662.63;;;-0.54
61595;BMP280;47397;48.194;11.632;2024-01-15T00:49:44;94674.28;;;-0.59
61595;BMP280;47397;48.194;11.632;2024-01-15T00:50:44;94661.81;;;-0.66
61595;BMP280;47397;48.194;11.632;2024-01-15T00:51:45;94674.28;;;-0.67
61595;BMP280;47397;48.194;11.632;2024-01-15T00:52:45;94667.63;;;-0.76
61595;BMP280;47397;48.194;11.632;2024-01-15T00:53:46;94672.59;;;-0.80
61595;BMP280;47397;48.194;11.632;2024-01-15T00:54:46;94662.63;;;-0.85
61595;BMP280;47397;48.194;11.632;2024-01-15T00:55:48;94665.97;;;-0.89
61595;BMP280;47397;48.194;11.632;2024-01-15T00:56:48;94672.63;;;-0.97
61595;BMP280;47397;48.194;11.632;2024-01-15T00:57:48;94666.78;;;-1.01
61595;BMP280;47397;48.194;11.632;2024-01-15T00:58:49;94661.81;;;-1.04
61595;BMP280;47397;48.194;11.632;2024-01-15T00:59:49;94672.63;;;-1.00
61595;BMP280;47397;48.194;11.632;2024-01-15T01:00:49;94660.97;;;-1.10
61595;BMP280;47397;48.194;11.632;2024-01-15T01:01:50;94668.47;;;-1.09
61595;BMP280;47397;48.194;11.632;2024-01-15T01:02:50;94667.59;;;-1.14
61595;BMP280;47397;48.194;11.632;2024-01-15T01:03:50;94666.75;;;-1.19
61595;BMP280;47397;48.194;11.632;2024-01-15T01:04:51;94670.09;;;-1.17
61595;BMP280;47397;48.194;11.632;2024-01-15T01:05:51;94670.91;;;-1.19
61595;BMP280;47397;48.194;11.632;2024-01-15T01:06:51;94672.56;;;-1.18
61595;BMP280;47397;48.194;11.632;2024-01-15T01:07:52;94676.72;;;-1.16
61595;BMP280;47397;48.194;11.632;2024-01-15T01:08:52;94675.06;;;-1.18
61595;BMP280;47397;48.194;11.632;2024-01-15T01:09:52;94671.75;;;-1.20
61595;BMP280;47397;48.194;11.632;2024-01-15T01:10:55;94670.09;;;-1.18
61595;BMP280;47397;48.194;11.632;2024-01-15T01:11:56;94667.59;;;-1.20
61595;BMP280;47397;48.194;11.632;2024-01-15T01:12:56;94681.72;;;-1.14
61595;BMP280;47397;48.194;11.632;2024-01-15T01:13:57;94677.56;;;-1.15
61595;BMP280;47397;48.194;11.632;2024-01-15T01:14:57;94664.28;;;-1.16
61595;BMP280;47397;48.194;11.632;2024-01-15T01:15:58;94663.44;;;-1.12
61595;BMP280;47397;48.194;11.632;2024-01-15T01:16:58;94677.59;;;-1.11
61595;BMP280;47397;48.194;11.632;2024-01-15T01:17:58;94669.28;;;-1.08
61595;BMP280;47397;48.194;11.632;2024-01-15T01:18:59;94672.63;;;-1.09
61595;BMP280;47397;48.194;11.632;2024-01-15T01:19:59;94672.63;;;-1.05
61595;BMP280;47397;48.194;11.632;2024-01-15T01:20:59;94674.28;;;-1.04
61595;BMP280;47397;48.194;11.632;2024-01-15T01:22:00;94673.44;;;-1.04
61595;BMP280;47397;48.194;11.632;2024-01-15T01:23:00;94677.59;;;-1.02
61595;BMP280;47397;48.194;11.632;2024-01-15T01:24:00;94670.13;;;-0.97
61595;BMP280;47397;48.194;11.632;2024-01-15T01:25:01;94672.63;;;-1.00
61595;BMP280;47397;48.194;11.632;2024-01-15T01:26:03;94676.78;;;-0.99
61595;BMP280;47397;48.194;11.632;2024-01-15T01:27:03;94672.63;;;-0.99
61595;BMP280;47397;48.194;11.632;2024-01-15T01:28:04;94672.63;;;-0.97
61595;BMP280;47397;48.194;11.632;2024-01-15T01:29:04;94684.25;;;-0.91
61595;BMP280;47397;48.194;11.632;2024-01-15T01:30:06;94680.09;;;-0.94
61595;BMP280;47397;48.194;11.632;2024-01-15T01:31:06;94677.59;;;-0.97
61595;BMP280;47397;48.194;11.632;2024-01-15T01:32:07;94680.09;;;-0.97
61595;BMP280;47397;48.194;11.632;2024-01-15T01:33:07;94674.28;;;-0.99
61595;BMP280;47397;48.194;11.632;2024-01-15T01:34:07;94681.75;;;-0.99
61595;BMP280;47397;48.194;11.632;2024-01-15T01:35:08;94677.59;;;-0.99
61595;BMP280;47397;48.194;11.632;2024-01-15T01:36:08;94675.09;;;-1.02
61595;BMP280;47397;48.194;11.632;2024-01-15T01:37:09;94676.78;;;-1.02
61595;BMP280;47397;48.194;11.632;2024-01-15T01:38:09;94684.25;;;-1.07
61595;BMP280;47397;48.194;11.632;2024-01-15T01:39:10;94678.44;;;-1.09
61595;BMP280;47397;48.194;11.632;2024-01-15T01:40:10;94672.59;;;-1.12
61595;BMP280;47397;48.194;11.632;2024-01-15T01:41:12;94680.06;;;-1.12
61595;BMP280;47397;48.194;11.632;2024-01-15T01:42:12;94670.94;;;-1.10
61595;BMP280;47397;48.194;11.632;2024-01-15T01:43:13;94674.28;;;-1.07
61595;BMP280;47397;48.194;11.632;2024-01-15T01:44:13;94680.94;;;-1.07
61595;BMP280;47397;48.194;11.632;2024-01-15T01:45:14;94675.94;;;-1.07
61595;BMP280;47397;48.194;11.632;2024-01-15T01:46:14;94668.47;;;-1.07
61595;BMP280;47397;48.194;11.632;2024-01-15T01:47:15;94673.44;;;-1.10
61595;BMP280;47397;48.194;11.632;2024-01-15T01:48:15;94682.59;;;-1.09
61595;BMP280;47397;48.194;11.632;2024-01-15T01:49:16;94683.38;;;-1.12
61595;BMP280;47397;48.194;11.632;2024-01-15T01:50:17;94680.06;;;-1.12
61595;BMP280;47397;48.194;11.632;2024-01-15T01:51:17;94678.41;;;-1.12
61595;BMP280;47397;48.194;11.632;2024-01-15T01:52:18;94682.59;;;-1.11
61595;BMP280;47397;48.194;11.632;2024-01-15T01:53:19;94675.09;;;-1.11
61595;BMP280;47397;48.194;11.632;2024-01-15T01:54:20;94681.72;;;-1.13
61595;BMP280;47397;48.194;11.632;2024-01-15T01:55:21;94686.75;;;-1.11
61595;BMP280;47397;48.194;11.632;2024-01-15T01:56:26;94685.03;;;-1.14
61595;BMP280;47397;48.194;11.632;2024-01-15T01:57:26;94688.38;;;-1.16
61595;BMP280;47397;48.194;11.632;2024-01-15T01:58:27;94685.88;;;-1.12
61595;BMP280;47397;48.194;11.632;2024-01-15T01:59:30;94687.53;;;-1.17
61595;BMP280;47397;48.194;11.632;2024-01-15T02:00:30;94678.41;;;-1.18
61595;BMP280;47397;48.194;11.632;2024-01-15T02:01:32;94686.69;;;-1.17
61595;BMP280;47397;48.194;11.632;2024-01-15T02:02:33;94688.38;;;-1.18
61595;BMP280;47397;48.194;11.632;2024-01-15T02:03:34;94688.38;;;-1.16
61595;BMP280;47397;48.194;11.632;2024-01-15T02:04:35;94691.69;;;-1.22
61595;BMP280;47397;48.194;11.632;2024-01-15T02:05:37;94688.38;;;-1.22
61595;BMP280;47397;48.194;11.632;2024-01-15T02:06:37;94697.50;;;-1.18
61595;BMP280;47397;48.194;11.632;2024-01-15T02:07:38;94695.00;;;-1.24
61595;BMP280;47397;48.194;11.632;2024-01-15T02:08:39;94694.19;;;-1.25
61595;BMP280;47397;48.194;11.632;2024-01-15T02:09:41;94700.81;;;-1.26
61595;BMP280;47397;48.194;11.632;2024-01-15T02:10:41;94698.31;;;-1.29
61595;BMP280;47397;48.194;11.632;2024-01-15T02:11:43;94697.50;;;-1.28
61595;BMP280;47397;48.194;11.632;2024-01-15T02:12:44;94698.31;;;-1.26
61595;BMP280;47397;48.194;11.632;2024-01-15T02:13:44;94688.34;;;-1.29
61595;BMP280;47397;48.194;11.632;2024-01-15T02:14:45;94692.50;;;-1.37
61595;BMP280;47397;48.194;11.632;2024-01-15T02:15:45;94691.66;;;-1.33
61595;BMP280;47397;48.194;11.632;2024-01-15T02:16:46;94694.16;;;-1.42
61595;BMP280;47397;48.194;11.632;2024-01-15T02:18:00;94694.16;;;-1.37
61595;BMP280;47397;48.194;11.632;2024-01-15T02:19:01;94691.66;;;-1.42
61595;BMP280;47397;48.194;11.632;2024-01-15T02:20:01;94690.00;;;-1.41
61595;BMP280;47397;48.194;11.632;2024-01-15T02:21:02;94687.50;;;-1.40
61595;BMP280;47397;48.194;11.632;2024-01-15T02:22:02;94687.50;;;-1.43
61595;BMP280;47397;48.194;11.632;2024-01-15T02:23:08;94688.34;;;-1.42
61595;BMP280;47397;48.194;11.632;2024-01-15T02:24:09;94689.16;;;-1.45
61595;BMP280;47397;48.194;11.632;2024-01-15T02:25:09;94689.16;;;-1.48
61595;BMP280;47397;48.194;11.632;2024-01-15T02:26:10;94691.66;;;-1.45
61595;BMP280;47397;48.194;11.632;2024-01-15T02:27:10;94682.47;;;-1.57
61595;BMP280;47397;48.194;11.632;2024-01-15T02:28:12;94693.25;;;-1.56
61595;BMP280;47397;48.194;11.632;2024-01-15T02:29:13;94690.75;;;-1.58
61595;BMP280;47397;48.194;11.632;2024-01-15T02:30:14;94700.72;;;-1.56
61595;BMP280;47397;48.194;11.632;2024-01-15T02:31:15;94700.72;;;-1.59
61595;BMP280;47397;48.194;11.632;2024-01-15T02:32:16;94697.41;;;-1.58
61595;BMP280;47397;48.194;11.632;2024-01-15T02:33:16;94697.41;;;-1.57
61595;BMP280;47397;48.194;11.632;2024-01-15T02:34:16;94699.88;;;-1.61
61595;BMP280;47397;48.194;11.632;2024-01-15T02:35:17;94699.88;;;-1.67
61595;BMP280;47397;48.194;11.632;2024-01-15T02:36:17;94704.88;;;-1.61
61595;BMP280;47397;48.194;11.632;2024-01-15T02:37:17;94696.56;;;-1.62
61595;BMP280;47397;48.194;11.632;2024-01-15T02:38:19;94702.34;;;-1.66
61595;BMP280;47397;48.194;11.632;2024-01-15T02:39:19;94698.22;;;-1.65
61595;BMP280;47397;48.194;11.632;2024-01-15T02:40:20;94700.69;;;-1.68
61595;BMP280;47397;48.194;11.632;2024-01-15T02:41:20;94698.19;;;-1.76
61595;BMP280;47397;48.194;11.632;2024-01-15T02:42:20;94696.50;;;-1.78
61595;BMP280;47397;48.194;11.632;2024-01-15T02:43:21;94693.19;;;-1.77
61595;BMP280;47397;48.194;11.632;2024-01-15T02:44:21;94699.84;;;-1.76
61595;BMP280;47397;48.194;11.632;2024-01-15T02:45:22;94703.13;;;-1.80
61595;BMP280;47397;48.194;11.632;2024-01-15T02:46:23;94692.34;;;-1.81
61595;BMP280;47397;48.194;11.632;2024-01-15T02:47:23;94701.50;;;-1.78
61595;BMP280;47397;48.194;11.632;2024-01-15T02:48:23;94703.13;;;-1.80
61595;BMP280;47397;48.194;11.632;2024-01-15T02:49:24;94697.31;;;-1.84
61595;BMP280;47397;48.194;11.632;2024-01-15T02:50:24;94694.78;;;-1.89
61595;BMP280;47397;48.194;11.632;2024-01-15T02:51:24;94689.03;;;-1.84
61595;BMP280;47397;48.194;11.632;2024-01-15T02:52:26;94691.53;;;-1.80
61595;BMP280;47397;48.194;11.632;2024-01-15T02:53:27;94683.22;;;-1.82
61595;BMP280;47397;48.194;11.632;2024-01-15T02:54:28;94695.66;;;-1.82
61595;BMP280;47397;48.194;11.632;2024-01-15T02:55:28;94699.75;;;-1.87
61595;BMP280;47397;48.194;11.632;2024-01-15T02:56:28;94711.44;;;-1.84
61595;BMP280;47397;48.194;11.632;2024-01-15T02:57:29;94703.09;;;-1.86
61595;BMP280;47397;48.194;11.632;2024-01-15T02:58:29;94708.06;;;-1.90
61595;BMP280;47397;48.194;11.632;2024-01-15T02:59:29;94710.59;;;-1.85
61595;BMP280;47397;48.194;11.632;2024-01-15T03:00:30;94709.78;;;-1.82
61595;BMP280;47397;48.194;11.632;2024-01-15T03:01:30;94704.78;;;-1.82
61595;BMP280;47397;48.194;11.632;2024-01-15T03:02:30;94713.94;;;-1.77
61595;BMP280;47397;48.194;11.632;2024-01-15T03:03:31;94699.00;;;-1.77
61595;BMP280;47397;48.194;11.632;2024-01-15T03:04:31;94708.94;;;-1.80
61595;BMP280;47397;48.194;11.632;2024-01-15T03:05:31;94706.47;;;-1.77
61595;BMP280;47397;48.194;11.632;2024-01-15T03:06:32;94703.16;;;-1.77
61595;BMP280;47397;48.194;11.632;2024-01-15T03:07:32;94708.16;;;-1.74
61595;BMP280;47397;48.194;11.632;2024-01-15T03:08:34;94715.63;;;-1.73
61595;BMP280;47397;48.194;11.632;2024-01-15T03:09:34;94704.00;;;-1.71
61595;BMP280;47397;48.194;11.632;2024-01-15T03:10:35;94713.16;;;-1.67
61595;BMP280;47397;48.194;11.632;2024-01-15T03:11:37;94688.25;;;-1.67
61595;BMP280;47397;48.194;11.632;2024-01-15T03:12:37;94698.22;;;-1.61
61595;BMP280;47397;48.194;11.632;2024-01-15T03:13:37;94695.72;;;-1.61
61595;BMP280;47397;48.194;11.632;2024-01-15T03:14:38;94695.72;;;-1.59
61595;BMP280;47397;48.194;11.632;2024-01-15T03:15:39;94695.75;;;-1.58
61595;BMP280;47397;48.194;11.632;2024-01-15T03:16:39;94704.03;;;-1.55
61595;BMP280;47397;48.194;11.632;2024-01-15T03:17:41;94702.38;;;-1.61
61595;BMP280;47397;48.194;11.632;2024-01-15T03:18:41;94696.56;;;-1.60
61595;BMP280;47397;48.194;11.632;2024-01-15T03:19:41;94699.88;;;-1.58
61595;BMP280;47397;48.194;11.632;2024-01-15T03:20:42;94703.22;;;-1.56
61595;BMP280;47397;48.194;11.632;2024-01-15T03:21:42;94697.41;;;-1.53
61595;BMP280;47397;48.194;11.632;2024-01-15T03:22:42;94699.06;;;-1.54
61595;BMP280;47397;48.194;11.632;2024-01-15T03:23:44;94701.56;;;-1.59
61595;BMP280;47397;48.194;11.632;2024-01-15T03:24:44;94694.09;;;-1.54
61595;BMP280;47397;48.194;11.632;2024-01-15T03:25:45;94700.72;;;-1.54
61595;BMP280;47397;48.194;11.632;2024-01-15T03:26:45;94699.91;;;-1.52
61595;BMP280;47397;48.194;11.632;2024-01-15T03:27:45;94698.25;;;-1.53
61595;BMP280;47397;48.194;11.632;2024-01-15T03:28:46;94703.22;;;-1.51
61595;BMP280;47397;48.194;11.632;2024-01-15T03:29:46;94699.06;;;-1.51
61595;BMP280;47397;48.194;11.632;2024-01-15T03:30:47;94704.88;;;-1.52
61595;BMP280;47397;48.194;11.632;2024-01-15T03:31:47;94707.38;;;-1.55
61595;BMP280;47397;48.194;11.632;2024-01-15T03:32:47;94708.19;;;-1.58
61595;BMP280;47397;48.194;11.632;2024-01-15T03:33:48;94709.88;;;-1.53
61595;BMP280;47397;48.194;11.632;2024-01-15T03:34:48;94704.88;;;-1.55
61595;BMP280;47397;48.194;11.632;2024-01-15T03:35:48;94699.06;;;-1.55
61595;BMP280;47397;48.194;11.632;2024-01-15T03:36:49;94696.56;;;-1.54
61595;BMP280;47397;48.194;11.632;2024-01-15T03:37:49;94699.91;;;-1.55
61595;BMP280;47397;48.194;11.632;2024-01-15T03:38:51;94699.03;;;-1.65
61595;BMP280;47397;48.194;11.632;2024-01-15T03:39:51;94701.53;;;-1.62
61595;BMP280;47397;48.194;11.632;2024-01-15T03:40:51;94695.72;;;-1.61
61595;BMP280;47397;48.194;11.632;2024-01-15T03:41:52;94693.22;;;-1.64
61595;BMP280;47397;48.194;11.632;2024-01-15T03:42:53;94694.03;;;-1.69
61595;BMP280;47397;48.194;11.632;2024-01-15T03:43:53;94691.53;;;-1.72
61595;BMP280;47397;48.194;11.632;2024-01-15T03:44:54;94694.88;;;-1.70
61595;BMP280;47397;48.194;11.632;2024-01-15T03:45:54;94692.38;;;-1.72
61595;BMP280;47397;48.194;11.632;2024-01-15T03:46:54;94693.19;;;-1.77
61595;BMP280;47397;48.194;11.632;2024-01-15T03:47:55;94694.03;;;-1.77
61595;BMP280;47397;48.194;11.632;2024-01-15T03:48:55;94690.72;;;-1.76
61595;BMP280;47397;48.194;11.632;2024-01-15T03:49:55;94690.69;;;-1.82
61595;BMP280;47397;48.194;11.632;2024-01-15T03:50:56;94697.34;;;-1.78
61595;BMP280;47397;48.194;11.632;2024-01-15T03:51:56;94695.66;;;-1.83
61595;BMP280;47397;48.194;11.632;2024-01-15T03:52:56;94697.34;;;-1.79
61595;BMP280;47397;48.194;11.632;2024-01-15T03:53:58;94697.34;;;-1.81
61595;BMP280;47397;48.194;11.632;2024-01-15T03:54:58;94697.34;;;-1.79
61595;BMP280;47397;48.194;11.632;2024-01-15T03:55:59;94696.50;;;-1.75
61595;BMP280;47397;48.194;11.632;2024-01-15T03:56:59;94691.53;;;-1.77
61595;BMP280;47397;48.194;11.632;2024-01-15T03:57:59;94696.50;;;-1.78
61595;BMP280;47397;48.194;11.632;2024-01-15T03:59:00;94688.22;;;-1.79
61595;BMP280;47397;48.194;11.632;2024-01-15T04:00:00;94691.53;;;-1.74
61595;BMP280;47397;48.194;11.632;2024-01-15T04:01:01;94687.41;;;-1.72
61595;BMP280;47397;48.194;11.632;2024-01-15T04:02:01;94693.19;;;-1.80
61595;BMP280;47397;48.194;11.632;2024-01-15T04:03:01;94688.22;;;-1.71
61595;BMP280;47397;48.194;11.632;2024-01-15T04:04:02;94686.56;;;-1.75
61595;BMP280;47397;48.194;11.632;2024-01-15T04:05:02;94683.25;;;-1.68
61595;BMP280;47397;48.194;11.632;2024-01-15T04:06:03;94679.94;;;-1.67
61595;BMP280;47397;48.194;11.632;2024-01-15T04:07:04;94683.25;;;-1.73
61595;BMP280;47397;48.194;11.632;2024-01-15T04:08:04;94673.28;;;-1.76
61595;BMP280;47397;48.194;11.632;2024-01-15T04:09:06;94694.84;;;-1.78
61595;BMP280;47397;48.194;11.632;2024-01-15T04:10:07;94688.22;;;-1.74
61595;BMP280;47397;48.194;11.632;2024-01-15T04:11:07;94680.75;;;-1.74
61595;BMP280;47397;48.194;11.632;2024-01-15T04:12:08;94675.78;;;-1.71
61595;BMP280;47397;48.194;11.632;2024-01-15T04:13:08;94669.13;;;-1.77
61595;BMP280;47397;48.194;11.632;2024-01-15T04:14:08;94673.28;;;-1.73
61595;BMP280;47397;48.194;11.632;2024-01-15T04:15:09;94675.75;;;-1.76
61595;BMP280;47397;48.194;11.632;2024-01-15T04:16:09;94679.91;;;-1.73
61595;BMP280;47397;48.194;11.632;2024-01-15T04:17:09;94678.25;;;-1.73
61595;BMP280;47397;48.194;11.632;2024-01-15T04:18:10;94684.09;;;-1.66
61595;BMP280;47397;48.194;11.632;2024-01-15T04:19:10;94670.78;;;-1.71
61595;BMP280;47397;48.194;11.632;2024-01-15T04:20:11;94672.47;;;-1.63
61595;BMP280;47397;48.194;11.632;2024-01-15T04:21:11;94664.16;;;-1.72
61595;BMP280;47397;48.194;11.632;2024-01-15T04:22:11;94667.47;;;-1.72
61595;BMP280;47397;48.194;11.632;2024-01-15T04:23:12;94683.25;;;-1.65
61595;BMP280;47397;48.194;11.632;2024-01-15T04:24:13;94665.84;;;-1.64
61595;BMP280;47397;48.194;11.632;2024-01-15T04:25:14;94672.47;;;-1.66
61595;BMP280;47397;48.194;11.632;2024-01-15T04:26:14;94669.16;;;-1.68
61595;BMP280;47397;48.194;11.632;2024-01-15T04:27:14;94676.63;;;-1.69
61595;BMP280;47397;48.194;11.632;2024-01-15T04:28:15;94667.47;;;-1.69
61595;BMP280;47397;48.194;11.632;2024-01-15T04:29:15;94674.97;;;-1.67
61595;BMP280;47397;48.194;11.632;2024-01-15T04:30:16;94667.47;;;-1.69
61595;BMP280;47397;48.194;11.632;2024-01-15T04:31:23;94655.88;;;-1.64
61595;BMP280;47397;48.194;11.632;2024-01-15T04:32:24;94682.44;;;-1.60
61595;BMP280;47397;48.194;11.632;2024-01-15T04:33:24;94660.03;;;-1.61
61595;BMP280;47397;48.194;11.632;2024-01-15T04:34:24;94675.81;;;-1.58
61595;BMP280;47397;48.194;11.632;2024-01-15T04:35:25;94679.94;;;-1.63
61595;BMP280;47397;48.194;11.632;2024-01-15T04:36:25;94669.97;;;-1.64
61595;BMP280;47397;48.194;11.632;2024-01-15T04:37:25;94679.13;;;-1.60
61595;BMP280;47397;48.194;11.632;2024-01-15T04:38:26;94672.47;;;-1.60
61595;BMP280;47397;48.194;11.632;2024-01-15T04:39:27;94675.81;;;-1.61
61595;BMP280;47397;48.194;11.632;2024-01-15T04:40:28;94669.16;;;-1.60
61595;BMP280;47397;48.194;11.632;2024-01-15T04:41:28;94667.50;;;-1.57
61595;BMP280;47397;48.194;11.632;2024-01-15T04:42:28;94677.47;;;-1.57
61595;BMP280;47397;48.194;11.632;2024-01-15T04:43:29;94673.31;;;-1.59
61595;BMP280;47397;48.194;11.632;2024-01-15T04:44:29;94671.66;;;-1.63
61595;BMP280;47397;48.194;11.632;2024-01-15T04:45:29;94669.16;;;-1.66
61595;BMP280;47397;48.194;11.632;2024-01-15T04:46:30;94681.63;;;-1.63
61595;BMP280;47397;48.194;11.632;2024-01-15T04:47:30;94679.13;;;-1.60
61595;BMP280;47397;48.194;11.632;2024-01-15T04:48:30;94673.31;;;-1.64
61595;BMP280;47397;48.194;11.632;2024-01-15T04:49:31;94671.66;;;-1.62
61595;BMP280;47397;48.194;11.632;2024-01-15T04:50:31;94661.69;;;-1.63
61595;BMP280;47397;48.194;11.632;2024-01-15T04:51:31;94671.66;;;-1.59
61595;BMP280;47397;48.194;11.632;2024-01-15T04:52:32;94668.34;;;-1.59
61595;BMP280;47397;48.194;11.632;2024-01-15T04:53:33;94668.34;;;-1.61
61595;BMP280;47397;48.194;11.632;2024-01-15T04:54:34;94671.66;;;-1.65
61595;BMP280;47397;48.194;11.632;2024-01-15T04:55:34;94673.31;;;-1.59
61595;BMP280;47397;48.194;11.632;2024-01-15T04:56:35;94670.00;;;-1.57
61595;BMP280;47397;48.194;11.632;2024-01-15T04:57:35;94672.50;;;-1.55
61595;BMP280;47397;48.194;11.632;2024-01-15T04:58:35;94656.72;;;-1.57
61595;BMP280;47397;48.194;11.632;2024-01-15T04:59:36;94656.72;;;-1.54
61595;BMP280;47397;48.194;11.632;2024-01-15T05:00:36;94655.88;;;-1.54
61595;BMP280;47397;48.194;11.632;2024-01-15T05:01:36;94656.72;;;-1.59
61595;BMP280;47397;48.194;11.632;2024-01-15T05:02:37;94665.00;;;-1.60
61595;BMP280;47397;48.194;11.632;2024-01-15T05:03:37;94671.66;;;-1.54
61595;BMP280;47397;48.194;11.632;2024-01-15T05:04:37;94672.50;;;-1.53
61595;BMP280;47397;48.194;11.632;2024-01-15T05:05:38;94676.66;;;-1.49
61595;BMP280;47397;48.194;11.632;2024-01-15T05:06:38;94677.47;;;-1.52
61595;BMP280;47397;48.194;11.632;2024-01-15T05:07:38;94665.03;;;-1.57
61595;BMP280;47397;48.194;11.632;2024-01-15T05:08:39;94679.16;;;-1.51
61595;BMP280;47397;48.194;11.632;2024-01-15T05:09:40;94677.50;;;-1.49
61595;BMP280;47397;48.194;11.632;2024-01-15T05:10:40;94669.19;;;-1.52
61595;BMP280;47397;48.194;11.632;2024-01-15T05:11:41;94666.72;;;-1.45
61595;BMP280;47397;48.194;11.632;2024-01-15T05:12:41;94668.41;;;-1.44
61595;BMP280;47397;48.194;11.632;2024-01-15T05:13:41;94670.88;;;-1.48
61595;BMP280;47397;48.194;11.632;2024-01-15T05:14:42;94671.72;;;-1.43
61595;BMP280;47397;48.194;11.632;2024-01-15T05:15:42;94680.84;;;-1.45
61595;BMP280;47397;48.194;11.632;2024-01-15T05:16:46;94678.38;;;-1.44
61595;BMP280;47397;48.194;11.632;2024-01-15T05:17:46;94672.56;;;-1.43
61595;BMP280;47397;48.194;11.632;2024-01-15T05:18:47;94673.38;;;-1.45
61595;BMP280;47397;48.194;11.632;2024-01-15T05:19:47;94674.22;;;-1.45
61595;BMP280;47397;48.194;11.632;2024-01-15T05:20:47;94675.03;;;-1.46
61595;BMP280;47397;48.194;11.632;2024-01-15T05:21:48;94667.56;;;-1.41
61595;BMP280;47397;48.194;11.632;2024-01-15T05:22:48;94673.38;;;-1.39
61595;BMP280;47397;48.194;11.632;2024-01-15T05:23:48;94674.19;;;-1.48
61595;BMP280;47397;48.194;11.632;2024-01-15T05:24:50;94675.81;;;-1.50
61595;BMP280;47397;48.194;11.632;2024-01-15T05:25:50;94667.50;;;-1.55
61595;BMP280;47397;48.194;11.632;2024-01-15T05:26:51;94672.50;;;-1.52
61595;BMP280;47397;48.194;11.632;2024-01-15T05:27:51;94670.00;;;-1.52
61595;BMP280;47397;48.194;11.632;2024-01-15T05:28:51;94667.53;;;-1.50
61595;BMP280;47397;48.194;11.632;2024-01-15T05:29:51;94675.03;;;-1.46
61595;BMP280;47397;48.194;11.632;2024-01-15T05:30:52;94672.53;;;-1.46
61595;BMP280;47397;48.194;11.632;2024-01-15T05:31:52;94670.88;;;-1.42
61595;BMP280;47397;48.194;11.632;2024-01-15T05:32:52;94666.72;;;-1.43
61595;BMP280;47397;48.194;11.632;2024-01-15T05:33:53;94660.94;;;-1.39
61595;BMP280;47397;48.194;11.632;2024-01-15T05:34:53;94660.09;;;-1.38
61595;BMP280;47397;48.194;11.632;2024-01-15T05:35:53;94665.91;;;-1.44
61595;BMP280;47397;48.194;11.632;2024-01-15T05:36:53;94663.41;;;-1.48
61595;BMP280;47397;48.194;11.632;2024-01-15T05:37:54;94666.72;;;-1.43
61595;BMP280;47397;48.194;11.632;2024-01-15T05:38:54;94662.56;;;-1.47
61595;BMP280;47397;48.194;11.632;2024-01-15T05:39:56;94671.72;;;-1.43
61595;BMP280;47397;48.194;11.632;2024-01-15T05:40:56;94672.56;;;-1.43
61595;BMP280;47397;48.194;11.632;2024-01-15T05:41:58;94674.22;;;-1.40
61595;BMP280;47397;48.194;11.632;2024-01-15T05:42:58;94675.03;;;-1.46
61595;BMP280;47397;48.194;11.632;2024-01-15T05:43:58;94667.56;;;-1.47